createdAt,value
2018-05-09T00:00:20.563Z,99.20
2018-05-09T00:02:50.503Z,99.20
2018-05-09T00:05:20.443Z,98.80
2018-05-09T00:07:51.164Z,99.30
2018-05-09T00:10:21.876Z,99.40
2018-05-09T00:12:51.835Z,99.30
2018-05-09T00:15:22.549Z,99.90
2018-05-09T00:17:53.303Z,99.90
2018-05-09T00:20:24.176Z,99.90
2018-05-09T00:22:54.151Z,99.90
2018-05-09T00:25:24.071Z,99.90
2018-05-09T00:27:54.752Z,99.90
2018-05-09T00:30:25.441Z,99.90
2018-05-09T00:32:56.110Z,99.90
2018-05-09T00:35:26.083Z,99.90
2018-05-09T00:37:56.758Z,99.90
2018-05-09T00:40:26.677Z,99.90
2018-05-09T00:42:56.600Z,99.90
2018-05-09T00:45:27.347Z,99.90
2018-05-09T00:47:58.036Z,99.90
2018-05-09T00:50:28.004Z,99.90
2018-05-09T00:52:58.720Z,99.90
2018-05-09T00:55:28.637Z,99.90
2018-05-09T00:57:58.621Z,99.90
2018-05-09T01:00:28.541Z,99.90
2018-05-09T01:02:58.460Z,99.90
2018-05-09T01:05:28.401Z,99.90
2018-05-09T01:07:58.280Z,99.90
2018-05-09T01:10:28.413Z,99.90
2018-05-09T01:12:59.167Z,99.90
2018-05-09T01:15:29.930Z,99.90
2018-05-09T01:18:16.802Z,99.90
2018-05-09T01:20:46.740Z,99.90
2018-05-09T01:23:17.492Z,99.90
2018-05-09T01:25:48.174Z,99.90
2018-05-09T01:28:18.138Z,99.90
2018-05-09T01:30:48.826Z,99.90
2018-05-09T01:33:19.664Z,99.90
2018-05-09T01:35:50.389Z,99.90
2018-05-09T01:38:20.288Z,99.90
2018-05-09T01:40:50.256Z,99.90
2018-05-09T01:43:21.104Z,99.90
2018-05-09T01:45:51.901Z,99.90
2018-05-09T01:48:23.320Z,99.90
2018-05-09T01:50:53.299Z,99.90
2018-05-09T01:53:23.985Z,99.90
2018-05-09T01:55:54.759Z,99.90
2018-05-09T01:58:24.724Z,99.90
2018-05-09T02:00:54.628Z,99.90
2018-05-09T02:06:00.719Z,99.90
2018-05-09T02:08:30.713Z,99.90
2018-05-09T02:11:00.622Z,99.90
2018-05-09T02:13:31.404Z,99.90
2018-05-09T02:16:02.277Z,99.90
2018-05-09T02:21:03.862Z,99.90
2018-05-09T02:23:34.579Z,99.90
2018-05-09T02:26:05.689Z,99.90
2018-05-09T02:28:36.350Z,99.90
2018-05-09T02:31:07.095Z,99.90
2018-05-09T02:33:38.203Z,99.90
2018-05-09T02:36:08.156Z,99.90
2018-05-09T02:38:38.810Z,99.90
2018-05-09T02:41:09.559Z,99.90
2018-05-09T02:43:39.488Z,99.90
2018-05-09T02:46:09.351Z,99.90
2018-05-09T02:48:39.967Z,99.90
2018-05-09T02:51:10.631Z,99.90
2018-05-09T02:53:41.337Z,99.90
2018-05-09T02:56:11.232Z,99.90
2018-05-09T02:58:41.906Z,99.90
2018-05-09T03:01:11.778Z,99.90
2018-05-09T03:03:42.447Z,99.90
2018-05-09T03:06:13.355Z,99.90
2018-05-09T03:08:43.990Z,99.90
2018-05-09T03:11:14.627Z,99.90
2018-05-09T03:13:45.268Z,99.90
2018-05-09T03:16:15.899Z,99.90
2018-05-09T03:18:46.527Z,99.90
2018-05-09T03:21:17.165Z,99.90
2018-05-09T03:23:48.186Z,99.90
2018-05-09T03:26:18.827Z,99.90
2018-05-09T03:28:48.733Z,99.90
2018-05-09T03:31:19.366Z,99.90
2018-05-09T03:33:49.989Z,99.90
2018-05-09T03:36:20.659Z,99.90
2018-05-09T03:38:50.519Z,99.90
2018-05-09T03:41:21.172Z,99.90
2018-05-09T03:43:51.847Z,99.90
2018-05-09T03:46:21.727Z,99.90
2018-05-09T03:48:51.610Z,99.90
2018-05-09T03:51:22.247Z,99.90
2018-05-09T03:53:52.936Z,99.90
2018-05-09T03:56:22.827Z,99.90
2018-05-09T03:58:52.707Z,99.90
2018-05-09T04:01:23.409Z,99.90
2018-05-09T04:04:11.047Z,99.90
2018-05-09T04:06:58.538Z,99.90
2018-05-09T04:09:42.912Z,99.90
2018-05-09T04:12:13.607Z,99.90
2018-05-09T04:14:44.431Z,99.90
2018-05-09T04:17:15.135Z,99.90
2018-05-09T04:19:45.807Z,99.90
2018-05-09T04:22:15.703Z,99.90
2018-05-09T04:24:46.338Z,99.90
2018-05-09T04:27:17.048Z,99.90
2018-05-09T04:29:47.673Z,99.90
2018-05-09T04:32:18.339Z,99.90
2018-05-09T04:34:48.982Z,99.90
2018-05-09T04:37:18.899Z,99.90
2018-05-09T04:39:48.884Z,99.90
2018-05-09T04:42:18.889Z,99.90
2018-05-09T04:44:49.598Z,99.90
2018-05-09T04:47:19.887Z,99.90
2018-05-09T04:49:50.617Z,99.90
2018-05-09T04:52:21.296Z,99.90
2018-05-09T04:54:51.979Z,99.90
2018-05-09T04:57:21.889Z,99.90
2018-05-09T04:59:53.569Z,99.90
2018-05-09T05:02:24.275Z,99.90
2018-05-09T05:04:54.947Z,99.90
2018-05-09T05:07:24.839Z,99.90
2018-05-09T05:09:55.673Z,99.90
2018-05-09T05:12:25.546Z,99.90
2018-05-09T05:14:56.252Z,99.90
2018-05-09T05:17:26.941Z,99.90
2018-05-09T05:19:56.851Z,99.90
2018-05-09T05:22:27.472Z,99.90
2018-05-09T05:24:57.320Z,99.90
2018-05-09T05:27:27.268Z,99.90
2018-05-09T05:29:57.152Z,99.90
2018-05-09T05:32:27.023Z,99.90
2018-05-09T05:34:58.828Z,99.90
2018-05-09T05:37:28.720Z,99.90
2018-05-09T05:39:59.346Z,99.90
2018-05-09T05:42:30.208Z,99.90
2018-05-09T05:45:00.202Z,99.90
2018-05-09T05:47:29.997Z,99.90
2018-05-09T05:50:00.650Z,99.90
2018-05-09T05:52:30.548Z,99.90
2018-05-09T05:55:01.179Z,99.90
2018-05-09T05:57:31.902Z,99.90
2018-05-09T06:00:02.632Z,99.90
2018-05-09T06:02:32.477Z,99.90
2018-05-09T06:05:13.280Z,99.90
2018-05-09T06:07:43.150Z,99.90
2018-05-09T06:10:13.769Z,99.90
2018-05-09T06:12:44.399Z,99.90
2018-05-09T06:15:15.069Z,99.90
2018-05-09T06:17:45.849Z,99.90
2018-05-09T06:20:16.089Z,99.90
2018-05-09T06:22:46.720Z,99.90
2018-05-09T06:25:17.650Z,99.90
2018-05-09T06:27:48.601Z,99.90
2018-05-09T06:30:19.268Z,99.90
2018-05-09T06:32:49.140Z,99.90
2018-05-09T06:35:19.765Z,99.90
2018-05-09T06:37:50.313Z,99.90
2018-05-09T06:40:20.219Z,99.90
2018-05-09T06:42:50.888Z,99.90
2018-05-09T06:45:21.680Z,99.90
2018-05-09T06:47:52.504Z,99.90
2018-05-09T06:50:23.154Z,99.90
2018-05-09T06:52:54.020Z,99.90
2018-05-09T06:55:24.118Z,99.90
2018-05-09T06:57:54.160Z,99.90
2018-05-09T07:00:24.140Z,99.90
2018-05-09T07:02:58.948Z,99.90
2018-05-09T07:05:28.928Z,99.90
2018-05-09T07:07:58.755Z,99.90
2018-05-09T07:10:28.681Z,99.90
2018-05-09T07:13:01.539Z,99.90
2018-05-09T07:15:38.451Z,99.90
2018-05-09T07:18:13.609Z,99.90
2018-05-09T07:20:46.025Z,99.90
2018-05-09T07:23:18.334Z,99.90
2018-05-09T07:25:50.982Z,99.90
2018-05-09T07:28:21.259Z,99.90
2018-05-09T07:30:51.889Z,98.80
2018-05-09T07:33:21.760Z,98.40
2018-05-09T07:35:51.679Z,98.70
2018-05-09T07:38:23.187Z,97.90
2018-05-09T07:40:53.068Z,97.80
2018-05-09T07:43:23.703Z,97.30
2018-05-09T07:45:54.348Z,98.50
2018-05-09T07:48:24.387Z,98.50
2018-05-09T07:50:54.239Z,97.30
2018-05-09T07:53:24.913Z,97.30
2018-05-09T07:55:54.801Z,97.30
2018-05-09T07:58:24.704Z,97.10
2018-05-09T08:00:55.400Z,97.00
2018-05-09T08:03:25.280Z,97.00
2018-05-09T08:05:55.152Z,96.40
2018-05-09T08:08:25.820Z,96.60
2018-05-09T08:10:56.556Z,97.10
2018-05-09T08:13:27.168Z,97.30
2018-05-09T08:15:58.135Z,95.50
2018-05-09T08:18:28.780Z,95.30
2018-05-09T08:20:58.652Z,95.20
2018-05-09T08:23:28.523Z,94.40
2018-05-09T08:25:58.382Z,95.20
2018-05-09T08:28:29.059Z,93.70
2018-05-09T08:30:58.940Z,93.60
2018-05-09T08:33:29.567Z,94.60
2018-05-09T08:35:59.483Z,94.50
2018-05-09T08:38:30.100Z,95.30
2018-05-09T08:40:59.980Z,95.30
2018-05-09T08:43:29.946Z,95.40
2018-05-09T08:46:00.488Z,94.80
2018-05-09T08:48:31.127Z,94.20
2018-05-09T08:51:00.969Z,94.20
2018-05-09T08:53:30.848Z,94.90
2018-05-09T08:56:00.720Z,95.00
2018-05-09T08:58:30.574Z,94.50
2018-05-09T09:01:00.548Z,94.20
2018-05-09T09:03:31.247Z,91.60
2018-05-09T09:06:01.160Z,91.60
2018-05-09T09:08:30.992Z,91.30
2018-05-09T09:11:01.766Z,91.20
2018-05-09T09:13:31.630Z,91.20
2018-05-09T09:16:01.521Z,90.70
2018-05-09T09:18:31.468Z,90.60
2018-05-09T09:21:01.302Z,91.30
2018-05-09T09:23:31.280Z,90.90
2018-05-09T09:26:01.121Z,90.60
2018-05-09T09:28:31.020Z,90.60
2018-05-09T09:31:00.864Z,90.40
2018-05-09T09:33:31.511Z,90.60
2018-05-09T09:36:02.121Z,90.00
2018-05-09T09:38:32.760Z,88.60
2018-05-09T09:41:02.741Z,88.60
2018-05-09T09:43:32.645Z,91.80
2018-05-09T09:46:03.369Z,90.10
2018-05-09T09:48:34.057Z,90.80
2018-05-09T09:51:03.959Z,90.80
2018-05-09T09:53:35.636Z,89.70
2018-05-09T09:56:05.569Z,89.50
2018-05-09T09:58:35.404Z,90.80
2018-05-09T10:01:05.260Z,90.00
2018-05-09T10:03:35.903Z,89.30
2018-05-09T10:06:06.598Z,88.90
2018-05-09T10:08:36.419Z,88.90
2018-05-09T10:11:06.328Z,90.40
2018-05-09T10:13:37.019Z,89.80
2018-05-09T10:16:06.951Z,89.70
2018-05-09T10:18:37.520Z,89.40
2018-05-09T10:21:07.431Z,89.40
2018-05-09T10:23:37.301Z,89.40
2018-05-09T10:26:07.159Z,88.40
2018-05-09T10:28:37.831Z,84.10
2018-05-09T10:31:08.575Z,85.80
2018-05-09T10:33:38.446Z,84.80
2018-05-09T10:36:08.349Z,87.80
2018-05-09T10:38:39.038Z,90.40
2018-05-09T10:41:08.891Z,90.40
2018-05-09T10:43:39.619Z,90.70
2018-05-09T10:46:09.751Z,90.70
2018-05-09T10:48:39.900Z,90.30
2018-05-09T10:51:11.391Z,86.60
2018-05-09T10:53:41.260Z,86.50
2018-05-09T10:56:11.891Z,91.90
2018-05-09T10:58:42.527Z,89.60
2018-05-09T11:01:12.365Z,89.50
2018-05-09T11:03:42.261Z,90.60
2018-05-09T11:06:13.212Z,91.90
2018-05-09T11:08:43.063Z,91.90
2018-05-09T11:11:13.843Z,93.30
2018-05-09T11:13:43.740Z,93.30
2018-05-09T11:16:14.441Z,91.30
2018-05-09T11:18:45.132Z,91.40
2018-05-09T11:21:15.020Z,91.40
2018-05-09T11:23:44.940Z,90.10
2018-05-09T11:26:15.548Z,87.60
2018-05-09T11:28:46.267Z,90.40
2018-05-09T11:31:16.139Z,90.20
2018-05-09T11:33:46.767Z,90.00
2018-05-09T11:36:16.613Z,90.10
2018-05-09T11:38:46.488Z,88.60
2018-05-09T11:41:16.327Z,90.90
2018-05-09T11:43:46.278Z,87.90
2018-05-09T11:46:17.571Z,89.70
2018-05-09T11:48:47.428Z,89.70
2018-05-09T11:51:17.292Z,90.20
2018-05-09T11:53:48.103Z,80.90
2018-05-09T11:56:18.763Z,77.00
2018-05-09T11:58:48.651Z,77.00
2018-05-09T12:01:19.300Z,79.00
2018-05-09T12:03:49.180Z,79.00
2018-05-09T12:06:20.047Z,75.00
2018-05-09T12:08:50.969Z,76.90
2018-05-09T12:11:20.812Z,76.80
2018-05-09T12:13:50.680Z,77.50
2018-05-09T12:16:21.348Z,72.90
2018-05-09T12:18:52.259Z,75.60
2018-05-09T12:21:22.162Z,75.60
2018-05-09T12:23:53.680Z,72.70
2018-05-09T12:26:23.644Z,72.70
2018-05-09T12:28:54.300Z,75.90
2018-05-09T12:31:24.172Z,75.90
2018-05-09T12:33:54.889Z,83.50
2018-05-09T12:36:25.770Z,83.30
2018-05-09T12:38:55.568Z,83.20
2018-05-09T12:41:25.436Z,89.10
2018-05-09T12:43:55.284Z,92.20
2018-05-09T12:46:25.960Z,94.80
2018-05-09T12:48:55.944Z,94.50
2018-05-09T12:51:25.751Z,98.00
2018-05-09T12:53:55.616Z,96.80
2018-05-09T12:56:25.485Z,99.10
2018-05-09T12:58:56.207Z,99.90
2018-05-09T13:01:26.860Z,99.90
2018-05-09T13:03:57.496Z,99.90
2018-05-09T13:06:28.160Z,99.90
2018-05-09T13:08:58.016Z,99.90
2018-05-09T13:11:27.943Z,99.90
2018-05-09T13:13:58.559Z,99.90
2018-05-09T13:16:29.208Z,99.90
2018-05-09T13:18:59.840Z,99.90
2018-05-09T13:21:30.840Z,98.40
2018-05-09T13:24:01.521Z,97.90
2018-05-09T13:26:31.442Z,97.80
2018-05-09T13:29:01.369Z,96.90
2018-05-09T13:31:31.243Z,93.50
2018-05-09T13:34:01.120Z,92.60
2018-05-09T13:36:30.991Z,91.40
2018-05-09T13:39:00.868Z,91.20
2018-05-09T13:41:30.760Z,86.50
2018-05-09T13:44:01.681Z,88.90
2018-05-09T13:46:31.575Z,88.80
2018-05-09T13:49:02.340Z,83.40
2018-05-09T13:51:32.240Z,83.80
2018-05-09T13:54:02.962Z,86.30
2018-05-09T13:56:32.873Z,86.10
2018-05-09T13:59:02.763Z,85.90
2018-05-09T14:01:34.003Z,84.40
2018-05-09T14:04:05.990Z,85.40
2018-05-09T14:06:35.871Z,82.40
2018-05-09T14:09:06.960Z,81.80
2018-05-09T14:11:36.823Z,81.70
2018-05-09T14:14:07.462Z,79.70
2018-05-09T14:16:38.120Z,81.10
2018-05-09T14:19:09.171Z,81.30
2018-05-09T14:21:39.473Z,81.50
2018-05-09T14:24:10.374Z,77.40
2018-05-09T14:26:42.138Z,79.20
2018-05-09T14:29:12.827Z,79.80
2018-05-09T14:31:43.031Z,79.70
2018-05-09T14:34:12.997Z,82.40
2018-05-09T14:36:43.735Z,78.80
2018-05-09T14:39:14.758Z,78.00
2018-05-09T14:41:44.649Z,78.00
2018-05-09T14:44:14.599Z,81.10
2018-05-09T14:46:44.609Z,81.20
2018-05-09T14:49:14.522Z,82.30
2018-05-09T14:51:44.444Z,89.30
2018-05-09T14:54:14.343Z,94.70
2018-05-09T14:56:45.160Z,95.60
2018-05-09T14:59:15.904Z,96.20
2018-05-09T15:01:46.879Z,96.80
2018-05-09T15:04:16.843Z,96.80
2018-05-09T15:06:46.753Z,98.00
2018-05-09T15:09:17.664Z,95.20
2018-05-09T15:11:47.640Z,95.20
2018-05-09T15:14:17.560Z,94.00
2018-05-09T15:16:47.448Z,91.20
2018-05-09T15:19:17.619Z,90.20
2018-05-09T15:21:48.304Z,90.40
2018-05-09T15:24:18.268Z,90.40
2018-05-09T15:26:48.940Z,89.70
2018-05-09T15:29:18.808Z,89.70
2018-05-09T15:31:49.479Z,87.90
2018-05-09T15:34:19.350Z,87.90
2018-05-09T15:36:49.339Z,87.40
2018-05-09T15:39:19.219Z,86.00
2018-05-09T15:41:49.111Z,87.00
2018-05-09T15:44:19.790Z,82.00
2018-05-09T15:46:49.639Z,82.00
2018-05-09T15:49:19.568Z,80.20
2018-05-09T15:51:50.239Z,80.30
2018-05-09T15:54:22.000Z,80.30
2018-05-09T15:56:52.845Z,77.40
2018-05-09T15:59:24.666Z,77.40
2018-05-09T16:01:55.650Z,79.00
2018-05-09T16:04:27.420Z,80.40
2018-05-09T16:06:58.264Z,80.50
2018-05-09T16:09:29.289Z,83.30
2018-05-09T16:12:00.003Z,82.70
2018-05-09T16:14:29.863Z,82.60
2018-05-09T16:17:00.520Z,81.70
2018-05-09T16:19:31.357Z,80.40
2018-05-09T16:22:01.266Z,80.40
2018-05-09T16:24:32.648Z,80.70
2018-05-09T16:27:04.076Z,80.40
2018-05-09T16:29:35.867Z,80.20
2018-05-09T16:32:06.625Z,79.80
2018-05-09T16:34:38.439Z,80.00
2018-05-09T16:37:08.360Z,80.20
2018-05-09T16:39:39.141Z,79.40
2018-05-09T16:42:10.187Z,80.20
2018-05-09T16:44:40.860Z,80.10
2018-05-09T16:47:11.488Z,79.50
2018-05-09T16:49:42.398Z,79.50
2018-05-09T16:52:13.280Z,77.60
2018-05-09T16:54:43.974Z,77.50
2018-05-09T16:57:14.716Z,79.70
2018-05-09T16:59:45.441Z,78.70
2018-05-09T17:02:15.384Z,78.70
2018-05-09T17:04:46.412Z,78.80
2018-05-09T17:07:17.300Z,77.60
2018-05-09T17:09:48.041Z,77.50
2018-05-09T17:12:18.131Z,77.40
2018-05-09T17:14:48.921Z,76.50
2018-05-09T17:17:19.716Z,76.60
2018-05-09T17:19:50.398Z,75.70
2018-05-09T17:22:34.279Z,75.70
2018-05-09T17:25:04.552Z,79.50
2018-05-09T17:27:34.780Z,81.10
2018-05-09T17:30:04.817Z,83.50
2018-05-09T17:32:35.812Z,86.30
2018-05-09T17:35:05.749Z,86.30
2018-05-09T17:37:35.712Z,86.60
2018-05-09T17:40:05.709Z,88.40
2018-05-09T17:42:35.771Z,88.10
2018-05-09T17:45:05.710Z,89.60
2018-05-09T17:47:35.602Z,90.30
2018-05-09T17:50:06.371Z,91.10
2018-05-09T17:52:36.228Z,91.10
2018-05-09T17:55:07.178Z,90.90
2018-05-09T17:57:37.100Z,90.90
2018-05-09T18:00:07.041Z,91.00
2018-05-09T18:02:37.620Z,91.80
2018-05-09T18:05:08.341Z,92.10
2018-05-09T18:07:38.181Z,92.00
2018-05-09T18:10:09.763Z,92.60
2018-05-09T18:12:39.838Z,92.60
2018-05-09T18:15:10.008Z,92.70
2018-05-09T18:17:40.137Z,93.30
2018-05-09T18:20:10.732Z,93.10
2018-05-09T18:22:40.777Z,93.10
2018-05-09T18:25:10.663Z,94.00
2018-05-09T18:27:40.696Z,93.80
2018-05-09T18:30:11.449Z,93.60
2018-05-09T18:32:42.104Z,94.30
2018-05-09T18:35:12.050Z,94.30
2018-05-09T18:37:41.984Z,94.10
2018-05-09T18:40:12.749Z,94.60
2018-05-09T18:42:43.460Z,94.50
2018-05-09T18:45:14.180Z,95.10
2018-05-09T18:47:45.085Z,95.10
2018-05-09T18:50:16.348Z,96.00
2018-05-09T18:52:49.413Z,96.70
2018-05-09T18:55:20.009Z,96.70
2018-05-09T18:57:49.989Z,96.20
2018-05-09T19:00:19.926Z,95.60
2018-05-09T19:02:49.828Z,96.10
2018-05-09T19:05:20.487Z,96.30
2018-05-09T19:07:51.104Z,96.00
2018-05-09T19:10:21.729Z,96.10
2018-05-09T19:12:51.564Z,96.00
2018-05-09T19:15:21.482Z,95.70
2018-05-09T19:17:52.120Z,96.20
2018-05-09T19:20:23.048Z,96.00
2018-05-09T19:22:52.948Z,96.00
2018-05-09T19:25:23.580Z,96.20
2018-05-09T19:27:54.220Z,96.40
2018-05-09T19:30:24.971Z,96.50
2018-05-09T19:32:54.823Z,96.40
2018-05-09T19:35:24.684Z,96.60
2018-05-09T19:37:55.409Z,96.30
2018-05-09T19:40:25.300Z,96.30
2018-05-09T19:42:56.007Z,96.30
2018-05-09T19:45:26.709Z,96.40
2018-05-09T19:47:56.672Z,96.30
2018-05-09T19:50:27.240Z,96.20
2018-05-09T19:52:57.156Z,96.10
2018-05-09T19:55:27.020Z,96.10
2018-05-09T19:57:56.910Z,96.20
2018-05-09T20:00:26.785Z,96.00
2018-05-09T20:02:57.611Z,96.50
2018-05-09T20:05:27.300Z,96.50
2018-05-09T20:07:57.880Z,97.80
2018-05-09T20:10:28.590Z,97.70
2018-05-09T20:12:58.523Z,97.80
2018-05-09T20:15:28.415Z,98.30
2018-05-09T20:17:59.084Z,98.00
2018-05-09T20:20:29.802Z,98.60
2018-05-09T20:22:59.685Z,98.60
2018-05-09T20:25:30.323Z,98.90
2018-05-09T20:28:00.989Z,98.00
2018-05-09T20:30:36.368Z,98.00
2018-05-09T20:33:07.074Z,98.90
2018-05-09T20:35:36.947Z,98.90
2018-05-09T20:38:06.956Z,99.60
2018-05-09T20:40:36.811Z,99.90
2018-05-09T20:43:06.700Z,99.90
2018-05-09T20:45:37.488Z,99.50
2018-05-09T20:48:07.360Z,99.50
2018-05-09T20:50:37.243Z,99.90
2018-05-09T20:53:07.905Z,99.40
2018-05-09T20:55:37.780Z,99.40
2018-05-09T20:58:07.921Z,99.60
2018-05-09T21:00:38.548Z,99.90
2018-05-09T21:03:09.228Z,99.90
2018-05-09T21:05:39.142Z,99.90
2018-05-09T21:08:09.862Z,99.90
2018-05-09T21:10:39.701Z,99.90
2018-05-09T21:13:09.574Z,99.90
2018-05-09T21:15:39.699Z,99.70
2018-05-09T21:18:09.348Z,99.40
2018-05-09T21:20:40.010Z,99.80
2018-05-09T21:23:11.652Z,99.90
2018-05-09T21:25:42.328Z,99.90
2018-05-09T21:28:12.221Z,99.90
2018-05-09T21:30:42.230Z,99.90
2018-05-09T21:33:13.779Z,99.90
2018-05-09T21:35:44.475Z,99.90
2018-05-09T21:38:14.308Z,99.90
2018-05-09T21:40:45.061Z,99.90
2018-05-09T21:43:16.010Z,99.90
2018-05-09T21:45:46.996Z,99.90
2018-05-09T21:48:16.860Z,99.90
2018-05-09T21:50:47.767Z,99.90
2018-05-09T21:53:17.660Z,99.90
2018-05-09T21:55:48.260Z,99.90
2018-05-09T21:58:18.128Z,99.90
2018-05-09T22:00:48.029Z,99.90
2018-05-09T22:03:18.811Z,99.90
2018-05-09T22:05:48.680Z,99.90
2018-05-09T22:08:19.343Z,99.90
2018-05-09T22:10:50.818Z,99.90
2018-05-09T22:13:21.552Z,99.90
2018-05-09T22:15:51.434Z,99.90
2018-05-09T22:18:22.067Z,99.90
2018-05-09T22:20:53.048Z,99.90
2018-05-09T22:23:22.908Z,99.90
2018-05-09T22:25:53.559Z,99.90
2018-05-09T22:28:24.180Z,99.90
2018-05-09T22:30:54.775Z,99.90
2018-05-09T22:33:24.648Z,99.90
2018-05-09T22:35:54.537Z,99.90
2018-05-09T22:38:25.147Z,99.90
2018-05-09T22:40:55.940Z,99.90
2018-05-09T22:43:25.794Z,99.90
2018-05-09T22:45:56.450Z,99.90
2018-05-09T22:48:27.407Z,99.90
2018-05-09T22:50:57.275Z,99.90
2018-05-09T22:53:27.904Z,99.90
2018-05-09T22:55:57.779Z,99.90
2018-05-09T22:58:27.646Z,99.90
2018-05-09T23:00:58.615Z,99.90
2018-05-09T23:03:29.559Z,99.90
2018-05-09T23:05:59.408Z,99.90
2018-05-09T23:08:29.268Z,99.90
2018-05-09T23:11:00.768Z,99.90
2018-05-09T23:13:31.399Z,99.90
2018-05-09T23:16:01.971Z,99.90
2018-05-09T23:18:32.602Z,99.90
2018-05-09T23:21:03.244Z,99.90
2018-05-09T23:23:33.631Z,99.90
2018-05-09T23:26:04.305Z,99.90
2018-05-09T23:28:35.948Z,99.90
2018-05-09T23:31:06.788Z,99.90
2018-05-09T23:33:37.420Z,99.90
2018-05-09T23:36:08.034Z,99.90
2018-05-09T23:38:38.708Z,99.90
2018-05-09T23:41:08.560Z,99.90
2018-05-09T23:43:38.448Z,99.90
2018-05-09T23:46:09.148Z,99.90
2018-05-09T23:48:39.021Z,99.90
2018-05-09T23:51:09.831Z,99.90
2018-05-09T23:53:39.690Z,99.90
2018-05-09T23:56:10.308Z,99.90
2018-05-09T23:58:40.961Z,99.90
